Time;durP1;ratioP1;P1;durP2;ratioP2;P2;SDS_P1;SDS_P2;PMS_P1;PMS_P2;Temp;Humidity;BMP_temperature;BMP_pressure;BME280_temperature;BME280_humidity;BME280_pressure;Samples;Min_cycle;Max_cycle;Signal;HPM_P1;HPM_P2
2021/11/23 00:01:02;;;;;;;3.38;0.70;;;-0.30;99.90;;;;;;5005979;28;20042;-83
2021/11/23 00:03:27;;;;;;;2.03;0.60;;;-0.20;99.90;;;;;;5007872;28;20501;-82
2021/11/23 00:05:53;;;;;;;3.28;0.80;;;-0.30;99.90;;;;;;4991454;28;20042;-83
2021/11/23 00:08:20;;;;;;;2.92;0.77;;;-0.40;99.90;;;;;;5007851;28;20030;-83
2021/11/23 00:10:46;;;;;;;3.00;0.80;;;-0.50;99.90;;;;;;4983474;28;20064;-83
2021/11/23 00:13:12;;;;;;;3.05;1.10;;;-0.40;99.90;;;;;;5008450;28;20030;-82
2021/11/23 00:15:38;;;;;;;3.83;0.70;;;-0.50;99.90;;;;;;4992069;28;20038;-83
2021/11/23 00:18:06;;;;;;;2.67;0.90;;;-0.50;99.90;;;;;;4991947;28;20036;-83
2021/11/23 00:20:33;;;;;;;3.85;0.82;;;-0.50;99.90;;;;;;4991841;28;20058;-82
2021/11/23 00:22:58;;;;;;;2.90;1.00;;;-0.40;99.90;;;;;;4991745;28;20036;-83
2021/11/23 00:25:26;;;;;;;3.15;0.65;;;-0.30;99.90;;;;;;4991835;28;20046;-82
2021/11/23 00:27:52;;;;;;;3.22;1.08;;;-0.30;99.90;;;;;;4991870;28;20081;-82
2021/11/23 00:30:18;;;;;;;3.17;0.77;;;-0.40;99.90;;;;;;4991834;28;20057;-83
2021/11/23 00:32:43;;;;;;;3.47;0.80;;;-0.30;99.90;;;;;;4991688;28;20034;-82
2021/11/23 00:35:09;;;;;;;3.85;0.80;;;-0.30;99.90;;;;;;4975329;28;20057;-82
2021/11/23 00:37:35;;;;;;;4.38;0.77;;;-0.30;99.90;;;;;;4975623;28;20035;-83
2021/11/23 00:43:49;;;;;;;2.65;0.68;;;-0.30;99.90;;;;;;4948332;29;20050;-82
2021/11/23 00:46:17;;;;;;;3.60;0.73;;;-0.20;99.90;;;;;;4932684;29;20039;-83
2021/11/23 00:48:43;;;;;;;2.85;0.88;;;-0.20;99.90;;;;;;4939428;29;20048;-82
2021/11/23 00:51:09;;;;;;;2.40;0.70;;;-0.10;99.90;;;;;;4962550;28;20055;-83
2021/11/23 00:53:35;;;;;;;2.40;0.90;;;0.00;99.90;;;;;;4970728;28;20050;-82
2021/11/23 00:56:02;;;;;;;2.90;1.08;;;0.10;99.90;;;;;;4954866;28;20030;-83
2021/11/23 00:58:28;;;;;;;3.42;0.98;;;0.20;99.90;;;;;;4954680;28;20051;-82
2021/11/23 01:00:53;;;;;;;4.82;1.10;;;0.30;99.90;;;;;;4954711;28;20046;-83
2021/11/23 01:03:19;;;;;;;4.43;1.00;;;0.30;99.90;;;;;;4954569;28;20095;-82
2021/11/23 01:05:46;;;;;;;3.55;1.50;;;0.40;99.90;;;;;;4986631;28;20310;-83
2021/11/23 01:08:13;;;;;;;4.88;0.93;;;0.50;99.90;;;;;;4954530;28;20102;-82
2021/11/23 01:10:38;;;;;;;3.38;1.13;;;0.60;99.90;;;;;;4938509;29;20130;-82
2021/11/23 01:13:04;;;;;;;3.10;1.10;;;0.50;99.90;;;;;;4935401;29;20044;-82
2021/11/23 01:15:30;;;;;;;4.90;0.88;;;0.60;99.90;;;;;;4935295;29;20070;-82
2021/11/23 01:17:56;;;;;;;2.67;0.95;;;0.70;99.90;;;;;;4935450;29;20031;-82
2021/11/23 01:20:23;;;;;;;3.53;1.00;;;0.60;99.90;;;;;;4963099;28;20038;-83
2021/11/23 01:22:49;;;;;;;3.97;0.80;;;0.70;99.90;;;;;;4990007;28;20030;-83
2021/11/23 01:25:15;;;;;;;3.38;1.00;;;0.90;99.90;;;;;;4990520;28;20467;-83
2021/11/23 01:27:41;;;;;;;3.80;1.15;;;1.00;99.90;;;;;;4990832;28;20026;-83
2021/11/23 01:30:09;;;;;;;3.95;1.20;;;0.90;99.90;;;;;;4974475;28;20057;-82
2021/11/23 01:32:35;;;;;;;4.85;0.90;;;1.00;99.90;;;;;;5007047;28;20030;-83
2021/11/23 01:35:02;;;;;;;4.25;1.10;;;0.90;99.90;;;;;;4990399;28;20045;-83
2021/11/23 01:37:27;;;;;;;4.30;1.30;;;1.00;99.90;;;;;;5008068;28;20030;-83
2021/11/23 01:40:15;;;;;;;3.67;1.38;;;1.00;99.90;;;;;;4974092;28;20034;-83
2021/11/23 01:42:41;;;;;;;4.72;1.30;;;1.20;99.90;;;;;;4912742;29;20044;-83
2021/11/23 01:45:08;;;;;;;3.72;1.27;;;1.10;99.90;;;;;;4897046;29;20056;-83
2021/11/23 01:47:33;;;;;;;4.55;1.38;;;1.20;99.90;;;;;;4912978;29;20040;-83
2021/11/23 01:49:59;;;;;;;2.45;0.90;;;1.30;99.90;;;;;;4916351;29;20073;-83
2021/11/23 01:52:25;;;;;;;4.35;1.23;;;1.30;99.90;;;;;;4950686;29;20027;-83
2021/11/23 01:54:52;;;;;;;3.42;1.17;;;1.40;99.90;;;;;;4950414;29;20047;-83
2021/11/23 01:57:19;;;;;;;5.63;1.48;;;1.40;99.90;;;;;;4950787;29;20027;-83
2021/11/23 01:59:45;;;;;;;3.42;1.20;;;1.50;99.90;;;;;;4950611;29;20078;-84
2021/11/23 02:02:11;;;;;;;5.38;1.85;;;1.60;99.90;;;;;;4934856;29;20107;-83
2021/11/23 02:04:37;;;;;;;4.28;1.70;;;1.70;99.90;;;;;;4950506;29;20070;-84
2021/11/23 02:07:02;;;;;;;4.35;1.48;;;1.70;99.90;;;;;;4950742;29;20040;-83
2021/11/23 02:09:28;;;;;;;5.63;1.30;;;1.70;99.90;;;;;;4943929;29;20043;-84
2021/11/23 02:11:54;;;;;;;4.43;1.30;;;1.70;99.90;;;;;;4931434;29;20040;-84
2021/11/23 02:14:22;;;;;;;3.80;1.48;;;1.70;99.90;;;;;;4915631;29;20040;-83
2021/11/23 02:16:47;;;;;;;6.40;2.05;;;2.00;99.90;;;;;;4915479;29;20031;-84
2021/11/23 02:19:13;;;;;;;4.25;2.20;;;2.20;99.90;;;;;;4954683;28;20105;-84
2021/11/23 02:21:39;;;;;;;5.15;1.75;;;2.20;99.90;;;;;;4993341;28;20166;-84
2021/11/23 02:24:04;;;;;;;6.47;1.52;;;2.30;99.90;;;;;;4993027;28;20072;-84
2021/11/23 02:26:30;;;;;;;5.82;1.92;;;2.30;99.90;;;;;;4993073;28;20025;-84
2021/11/23 02:28:56;;;;;;;6.55;1.60;;;2.40;99.90;;;;;;5009506;28;20057;-84
2021/11/23 02:31:22;;;;;;;5.50;2.30;;;2.40;99.90;;;;;;5009311;28;20036;-84
2021/11/23 02:33:49;;;;;;;5.63;2.05;;;2.40;99.90;;;;;;5025511;28;20036;-84
2021/11/23 02:36:16;;;;;;;4.63;1.58;;;2.40;99.90;;;;;;5008521;28;20064;-85
2021/11/23 02:38:42;;;;;;;7.47;1.90;;;2.40;99.90;;;;;;5009209;28;20041;-84
2021/11/23 02:41:10;;;;;;;8.30;2.30;;;2.50;99.90;;;;;;4992627;28;20093;-84
2021/11/23 02:43:37;;;;;;;7.88;1.95;;;2.70;99.90;;;;;;4992834;28;20080;-84
2021/11/23 02:46:03;;;;;;;5.75;2.05;;;2.60;99.90;;;;;;5025254;28;20038;-84
2021/11/23 02:48:29;;;;;;;6.50;2.65;;;2.70;99.90;;;;;;4992617;28;20033;-84
2021/11/23 02:51:08;;;;;;;5.43;2.15;;;2.70;99.90;;;;;;5001773;28;20094;-84
2021/11/23 02:53:34;;;;;;;6.30;1.67;;;2.90;99.90;;;;;;5011890;28;20034;-84
2021/11/23 02:56:01;;;;;;;8.65;1.98;;;2.90;99.90;;;;;;5012026;28;20037;-84
2021/11/23 02:58:29;;;;;;;7.90;2.25;;;2.90;99.90;;;;;;5012148;28;20030;-85
2021/11/23 03:00:56;;;;;;;6.93;2.13;;;3.00;99.90;;;;;;5011918;28;20037;-84
2021/11/23 03:03:23;;;;;;;5.60;1.90;;;3.10;99.90;;;;;;5012088;28;20453;-84
2021/11/23 03:05:48;;;;;;;4.50;1.58;;;3.10;99.90;;;;;;5011636;28;20044;-84
2021/11/23 03:08:14;;;;;;;7.25;2.17;;;3.10;99.90;;;;;;5012122;28;20033;-85
2021/11/23 03:10:40;;;;;;;5.40;1.98;;;3.10;99.90;;;;;;5011702;28;20034;-84
2021/11/23 03:13:05;;;;;;;5.18;2.38;;;3.20;99.90;;;;;;4992390;28;20497;-85
2021/11/23 03:15:32;;;;;;;6.95;2.20;;;3.30;99.90;;;;;;4992239;28;20041;-85
2021/11/23 03:17:58;;;;;;;4.35;1.65;;;3.20;99.90;;;;;;4992266;28;20537;-85
2021/11/23 03:20:25;;;;;;;5.13;1.98;;;3.20;99.90;;;;;;5008486;28;20049;-85
2021/11/23 03:22:52;;;;;;;4.88;2.08;;;3.40;99.90;;;;;;5008671;28;20034;-85
2021/11/23 03:25:18;;;;;;;3.13;1.25;;;3.30;99.90;;;;;;5008029;28;20071;-84
2021/11/23 03:27:44;;;;;;;6.20;1.80;;;3.30;99.90;;;;;;4992286;28;20034;-84
2021/11/23 03:30:14;;;;;;;4.07;1.70;;;3.20;99.90;;;;;;4992106;28;20041;-84
2021/11/23 03:32:41;;;;;;;4.60;1.48;;;3.20;99.90;;;;;;4992336;28;20061;-85
2021/11/23 03:35:07;;;;;;;3.88;1.52;;;3.10;99.90;;;;;;4991990;28;20041;-85
2021/11/23 03:37:33;;;;;;;6.53;1.20;;;3.20;99.90;;;;;;5008266;28;20037;-85
2021/11/23 03:40:20;;;;;;;5.07;2.38;;;3.20;99.90;;;;;;5008170;28;20034;-83
2021/11/23 03:42:46;;;;;;;5.80;1.80;;;3.20;99.90;;;;;;4913894;29;20046;-84
2021/11/23 03:45:12;;;;;;;4.50;1.40;;;3.20;99.90;;;;;;4929784;29;20052;-84
2021/11/23 03:47:38;;;;;;;5.78;1.73;;;3.30;99.90;;;;;;4933151;29;20064;-84
2021/11/23 03:50:07;;;;;;;3.22;1.60;;;3.30;99.90;;;;;;4936324;29;20044;-84
2021/11/23 03:52:33;;;;;;;3.63;1.67;;;3.40;99.90;;;;;;4952829;29;20037;-84
2021/11/23 03:54:58;;;;;;;3.67;1.42;;;3.40;99.90;;;;;;4968503;29;20043;-84
2021/11/23 03:57:24;;;;;;;8.25;2.83;;;3.40;99.90;;;;;;4936788;29;20066;-84
2021/11/23 03:59:50;;;;;;;6.95;2.15;;;3.40;99.90;;;;;;4952942;29;20202;-85
2021/11/23 04:02:22;;;;;;;6.93;2.20;;;3.40;99.90;;;;;;4952900;29;20519;-84
2021/11/23 04:04:48;;;;;;;3.83;1.92;;;3.40;99.90;;;;;;4952509;29;20138;-85
2021/11/23 04:07:13;;;;;;;3.42;1.55;;;3.50;99.90;;;;;;4968722;29;20197;-85
2021/11/23 04:09:39;;;;;;;3.80;1.17;;;3.60;99.90;;;;;;4936517;29;20178;-85
2021/11/23 04:12:06;;;;;;;3.83;1.60;;;3.60;99.90;;;;;;4952595;29;20049;-85
2021/11/23 04:14:32;;;;;;;5.70;1.30;;;3.60;99.90;;;;;;4952537;29;20079;-85
2021/11/23 04:16:58;;;;;;;4.03;1.40;;;3.50;99.90;;;;;;4952467;29;20035;-85
2021/11/23 04:19:23;;;;;;;3.88;1.90;;;3.60;99.90;;;;;;4965864;28;20053;-85
2021/11/23 04:21:49;;;;;;;2.58;1.58;;;3.60;99.90;;;;;;4975960;28;20495;-85
2021/11/23 04:24:15;;;;;;;6.70;1.90;;;3.60;99.90;;;;;;4975814;28;20042;-84
2021/11/23 04:26:40;;;;;;;4.05;1.60;;;3.60;99.90;;;;;;4991954;28;20023;-86
2021/11/23 04:29:06;;;;;;;5.28;1.60;;;3.60;99.90;;;;;;4975882;28;20065;-85
2021/11/23 04:31:32;;;;;;;4.35;1.15;;;3.70;99.90;;;;;;4991902;28;20035;-84
2021/11/23 04:33:57;;;;;;;4.47;1.42;;;3.70;99.90;;;;;;4991745;28;20049;-85
2021/11/23 04:36:23;;;;;;;6.22;2.20;;;3.70;99.90;;;;;;4975728;28;20037;-85
2021/11/23 04:38:49;;;;;;;5.15;1.33;;;3.70;99.90;;;;;;4992074;28;20479;-85
2021/11/23 04:41:15;;;;;;;7.05;1.55;;;3.80;99.90;;;;;;4975687;28;20493;-85
2021/11/23 04:43:40;;;;;;;5.15;1.40;;;3.80;99.90;;;;;;4991566;28;20054;-85
2021/11/23 04:46:06;;;;;;;4.43;1.35;;;3.80;99.90;;;;;;4991978;28;20053;-84
2021/11/23 04:48:31;;;;;;;3.28;1.33;;;3.80;99.90;;;;;;4975795;28;20084;-85
2021/11/23 04:50:57;;;;;;;3.33;1.17;;;3.90;99.90;;;;;;4994798;28;20390;-84
2021/11/23 04:53:23;;;;;;;5.78;1.25;;;3.90;99.90;;;;;;5014353;28;20026;-84
2021/11/23 04:55:50;;;;;;;6.93;1.42;;;3.90;99.90;;;;;;5030913;28;20201;-84
2021/11/23 04:58:17;;;;;;;4.13;1.40;;;3.90;99.90;;;;;;5013300;28;20032;-85
2021/11/23 05:00:42;;;;;;;7.22;1.50;;;3.90;99.90;;;;;;5014519;28;20120;-84
2021/11/23 05:03:08;;;;;;;5.43;1.83;;;4.10;99.90;;;;;;5014463;28;20025;-84
2021/11/23 05:05:34;;;;;;;8.07;2.30;;;4.10;99.90;;;;;;5014291;28;20052;-85
2021/11/23 05:08:00;;;;;;;4.75;1.63;;;4.20;99.90;;;;;;5030599;28;20382;-85
2021/11/23 05:10:26;;;;;;;5.22;1.38;;;4.20;99.90;;;;;;4999675;28;20172;-85
2021/11/23 05:12:53;;;;;;;3.55;1.70;;;4.30;99.90;;;;;;5010629;28;20026;-84
2021/11/23 05:15:19;;;;;;;6.22;2.22;;;4.30;99.90;;;;;;4994642;28;20033;-85
2021/11/23 05:17:45;;;;;;;5.18;2.00;;;4.30;99.90;;;;;;4994442;28;20062;-84
2021/11/23 05:20:11;;;;;;;5.90;1.88;;;4.40;99.90;;;;;;4994577;28;20030;-85
2021/11/23 05:22:37;;;;;;;9.57;2.28;;;4.40;99.90;;;;;;4994412;28;20067;-85
2021/11/23 05:25:05;;;;;;;3.78;1.30;;;4.40;99.90;;;;;;4994402;28;20136;-85
2021/11/23 05:27:31;;;;;;;7.18;1.40;;;4.30;99.90;;;;;;5028245;28;20064;-85
2021/11/23 05:29:59;;;;;;;6.32;1.67;;;4.30;99.90;;;;;;5010611;28;20087;-84
2021/11/23 05:32:25;;;;;;;6.75;2.03;;;4.30;99.90;;;;;;5010558;28;20048;-85
2021/11/23 05:34:50;;;;;;;4.95;1.70;;;4.40;99.90;;;;;;4994148;28;20037;-85
2021/11/23 05:37:16;;;;;;;3.80;1.55;;;4.40;99.90;;;;;;5010507;28;20397;-85
2021/11/23 05:39:42;;;;;;;5.50;1.95;;;4.50;99.90;;;;;;4993988;28;20033;-85
2021/11/23 05:42:08;;;;;;;3.85;1.52;;;4.50;99.90;;;;;;4994018;28;20026;-85
2021/11/23 05:44:33;;;;;;;4.80;1.48;;;4.50;99.90;;;;;;4993675;28;20607;-85
2021/11/23 05:46:59;;;;;;;5.78;1.58;;;4.50;99.90;;;;;;4994163;28;20033;-86
2021/11/23 05:49:25;;;;;;;5.82;2.05;;;4.50;99.90;;;;;;4989842;28;20036;-85
2021/11/23 05:51:50;;;;;;;4.72;1.60;;;4.50;99.90;;;;;;5026845;28;20112;-85
2021/11/23 05:54:16;;;;;;;8.23;1.85;;;4.50;99.90;;;;;;5013048;28;20034;-85
2021/11/23 05:56:42;;;;;;;4.38;1.50;;;4.50;99.90;;;;;;5013117;28;20025;-85
2021/11/23 05:59:07;;;;;;;5.75;1.77;;;4.60;99.90;;;;;;5012866;28;20478;-85
2021/11/23 06:01:33;;;;;;;2.70;1.08;;;4.60;99.90;;;;;;5013127;28;20037;-85
2021/11/23 06:03:58;;;;;;;2.92;1.20;;;4.60;99.90;;;;;;5028896;28;20097;-85
2021/11/23 06:06:24;;;;;;;5.07;1.80;;;4.50;99.90;;;;;;5014845;28;20087;-85
2021/11/23 06:08:50;;;;;;;7.95;2.20;;;4.60;99.90;;;;;;5012856;28;20049;-85
2021/11/23 06:11:16;;;;;;;4.45;2.20;;;4.60;99.90;;;;;;4995022;28;20056;-85
2021/11/23 06:13:42;;;;;;;4.82;1.13;;;4.70;99.90;;;;;;4993026;28;20060;-86
2021/11/23 06:16:07;;;;;;;6.63;2.13;;;4.70;99.90;;;;;;4993561;28;20033;-85
2021/11/23 06:18:34;;;;;;;3.97;1.95;;;4.70;99.90;;;;;;4992970;28;20040;-85
2021/11/23 06:21:00;;;;;;;6.70;1.55;;;4.70;99.90;;;;;;4993205;28;20034;-85
2021/11/23 06:23:27;;;;;;;7.03;2.13;;;4.70;99.90;;;;;;4993163;28;20030;-85
2021/11/23 06:25:54;;;;;;;4.18;2.22;;;4.80;99.90;;;;;;4993126;28;20102;-86
2021/11/23 06:28:22;;;;;;;7.03;2.53;;;4.80;99.90;;;;;;4993054;28;20030;-85
2021/11/23 06:30:49;;;;;;;7.80;2.45;;;4.80;99.90;;;;;;4992943;28;20076;-86
2021/11/23 06:33:15;;;;;;;7.60;2.28;;;4.80;99.90;;;;;;4992250;28;20030;-86
2021/11/23 06:35:40;;;;;;;4.85;2.00;;;4.90;99.90;;;;;;4997577;28;20041;-85
2021/11/23 06:38:07;;;;;;;6.47;2.33;;;4.80;99.90;;;;;;4989660;28;20041;-85
2021/11/23 06:40:34;;;;;;;5.13;1.80;;;4.90;99.90;;;;;;4973573;28;20058;-86
2021/11/23 06:43:00;;;;;;;7.28;2.80;;;4.90;99.90;;;;;;5000681;28;20037;-86
2021/11/23 06:45:26;;;;;;;4.65;2.03;;;4.90;99.90;;;;;;5008594;28;20045;-85
2021/11/23 06:47:52;;;;;;;9.02;3.47;;;5.00;99.90;;;;;;4992365;28;20034;-86
2021/11/23 06:50:18;;;;;;;7.07;2.80;;;5.00;99.90;;;;;;4996899;28;20037;-85
2021/11/23 06:52:44;;;;;;;9.55;2.15;;;5.00;99.90;;;;;;5012288;28;20053;-86
2021/11/23 06:55:10;;;;;;;8.75;3.20;;;5.00;99.90;;;;;;5028462;28;20033;-88
2021/11/23 06:57:36;;;;;;;5.72;2.13;;;5.00;99.90;;;;;;5028558;28;20089;-86
2021/11/23 07:00:05;;;;;;;8.48;2.80;;;5.00;99.90;;;;;;4993154;28;20073;-86
2021/11/23 07:02:30;;;;;;;5.80;2.58;;;5.00;99.90;;;;;;4993054;28;20029;-84
2021/11/23 07:04:56;;;;;;;7.95;3.05;;;5.00;99.90;;;;;;4991314;28;20052;-85
2021/11/23 07:07:21;;;;;;;9.32;3.08;;;5.00;99.90;;;;;;5008115;28;20022;-86
2021/11/23 07:09:47;;;;;;;7.45;2.75;;;5.00;99.90;;;;;;4990762;28;20088;-85
2021/11/23 07:12:13;;;;;;;5.60;1.85;;;5.00;99.90;;;;;;4995846;28;20018;-86
2021/11/23 07:14:39;;;;;;;7.07;2.63;;;5.00;99.90;;;;;;5020083;28;20063;-85
2021/11/23 07:17:05;;;;;;;7.10;2.40;;;5.00;99.90;;;;;;4991106;28;20033;-86
2021/11/23 07:19:33;;;;;;;3.72;1.85;;;5.00;99.90;;;;;;4999883;28;20044;-86
2021/11/23 07:21:59;;;;;;;7.60;2.60;;;5.00;99.90;;;;;;4980118;28;20025;-84
2021/11/23 07:24:26;;;;;;;9.40;2.70;;;5.10;99.90;;;;;;4986603;28;20504;-86
2021/11/23 07:26:51;;;;;;;5.75;2.33;;;5.10;99.90;;;;;;4981832;28;20026;-86
2021/11/23 07:29:17;;;;;;;4.35;2.03;;;5.10;99.90;;;;;;4998149;28;20034;-83
2021/11/23 07:31:43;;;;;;;6.75;1.80;;;5.10;99.90;;;;;;4981816;28;20080;-84
2021/11/23 07:34:08;;;;;;;5.95;2.42;;;5.10;99.90;;;;;;4996693;28;20030;-83
2021/11/23 07:36:36;;;;;;;4.80;1.75;;;5.00;99.90;;;;;;4994608;28;20172;-84
2021/11/23 07:39:04;;;;;;;7.70;2.67;;;5.10;99.90;;;;;;5003288;28;20018;-84
2021/11/23 07:41:30;;;;;;;4.53;2.08;;;5.10;99.90;;;;;;5003779;23;20046;-82
2021/11/23 07:43:56;;;;;;;7.20;2.35;;;5.20;99.90;;;;;;5005675;28;20098;-84
2021/11/23 07:46:25;;;;;;;4.70;2.30;;;5.20;99.90;;;;;;5002383;28;20054;-84
2021/11/23 07:48:52;;;;;;;6.82;2.10;;;5.30;99.90;;;;;;5010524;28;20133;-83
2021/11/23 07:51:18;;;;;;;10.38;2.80;;;5.30;99.90;;;;;;5010370;28;20033;-84
2021/11/23 07:53:44;;;;;;;7.13;3.50;;;5.40;99.90;;;;;;5010695;28;20037;-84
2021/11/23 07:56:12;;;;;;;10.18;3.00;;;5.40;99.90;;;;;;5022586;28;20025;-84
2021/11/23 07:58:37;;;;;;;5.68;2.47;;;5.50;99.90;;;;;;4970445;28;20038;-84
2021/11/23 08:01:04;;;;;;;5.70;2.42;;;5.50;99.90;;;;;;5008406;28;20539;-84
2021/11/23 08:03:29;;;;;;;5.07;2.20;;;5.60;99.90;;;;;;4989989;28;20088;-84
2021/11/23 08:05:56;;;;;;;8.27;2.60;;;5.60;99.90;;;;;;4992546;28;20042;-85
2021/11/23 08:08:22;;;;;;;5.05;2.38;;;5.70;99.90;;;;;;4989491;28;20089;-85
2021/11/23 08:10:48;;;;;;;7.45;3.13;;;5.70;99.90;;;;;;5004060;28;20112;-84
2021/11/23 08:13:14;;;;;;;8.80;3.70;;;5.70;99.90;;;;;;5003351;28;20064;-83
2021/11/23 08:15:40;;;;;;;7.88;3.45;;;5.80;99.90;;;;;;5004684;28;20387;-83
2021/11/23 08:18:07;;;;;;;9.15;2.95;;;5.70;99.90;;;;;;5009334;28;20029;-84
2021/11/23 08:20:34;;;;;;;6.78;2.50;;;5.80;99.90;;;;;;4987762;28;20026;-85
2021/11/23 08:23:01;;;;;;;5.70;2.65;;;5.80;99.90;;;;;;4988456;28;20034;-85
2021/11/23 08:25:33;;;;;;;10.30;2.50;;;5.80;99.90;;;;;;5008188;28;20033;-84
2021/11/23 08:27:59;;;;;;;8.57;2.83;;;5.80;99.90;;;;;;5006869;28;20040;-86
2021/11/23 08:30:24;;;;;;;4.43;2.30;;;5.80;99.90;;;;;;4993141;28;20061;-85
2021/11/23 08:32:53;;;;;;;5.63;2.47;;;5.80;99.90;;;;;;5012079;28;20029;-85
2021/11/23 08:35:18;;;;;;;6.78;2.40;;;5.80;99.90;;;;;;4993806;28;20030;-86
2021/11/23 08:37:44;;;;;;;8.52;4.00;;;5.90;99.90;;;;;;5012828;28;20045;-84
2021/11/23 08:40:11;;;;;;;8.32;3.78;;;5.90;99.90;;;;;;5010842;28;20036;-85
2021/11/23 08:42:37;;;;;;;5.60;2.85;;;6.00;99.90;;;;;;5009766;28;20067;-85
2021/11/23 08:45:04;;;;;;;8.98;2.70;;;6.00;99.90;;;;;;4998543;28;20056;-84
2021/11/23 08:47:30;;;;;;;8.25;4.05;;;6.00;99.90;;;;;;4993521;28;20065;-84
2021/11/23 08:49:56;;;;;;;3.25;2.30;;;6.10;99.90;;;;;;5014238;28;20050;-84
2021/11/23 08:52:22;;;;;;;12.50;4.43;;;6.20;99.90;;;;;;5009239;28;20030;-85
2021/11/23 08:54:47;;;;;;;9.02;4.53;;;6.20;99.90;;;;;;4997722;28;20339;-85
2021/11/23 08:57:14;;;;;;;8.95;5.88;;;6.30;99.90;;;;;;5012294;28;20415;-86
2021/11/23 08:59:42;;;;;;;9.05;5.32;;;6.30;99.90;;;;;;5000116;28;20073;-86
2021/11/23 09:02:13;;;;;;;11.25;3.95;;;6.30;99.90;;;;;;4991293;28;20475;-86
2021/11/23 09:04:40;;;;;;;15.10;6.28;;;6.30;99.90;;;;;;4991915;28;20046;-85
2021/11/23 09:07:08;;;;;;;11.82;6.05;;;6.20;99.90;;;;;;4994111;28;20089;-85
2021/11/23 09:09:35;;;;;;;10.38;6.50;;;6.30;99.90;;;;;;5007652;28;20050;-86
2021/11/23 09:12:03;;;;;;;9.25;4.30;;;6.20;99.90;;;;;;5008421;28;20029;-86
2021/11/23 09:14:30;;;;;;;9.73;5.40;;;6.40;99.90;;;;;;4991679;28;20049;-85
2021/11/23 09:16:57;;;;;;;10.57;6.00;;;6.40;99.90;;;;;;5011177;28;20029;-85
2021/11/23 09:19:23;;;;;;;7.38;5.18;;;6.50;99.90;;;;;;5008193;28;20064;-86
2021/11/23 09:21:49;;;;;;;9.50;4.82;;;6.60;99.90;;;;;;4994440;28;20118;-86
2021/11/23 09:24:15;;;;;;;12.27;7.45;;;6.60;99.90;;;;;;4991647;28;20108;-85
2021/11/23 09:26:41;;;;;;;15.15;8.38;;;6.60;99.90;;;;;;4992613;28;20030;-86
2021/11/23 09:29:06;;;;;;;12.93;7.18;;;6.60;99.90;;;;;;4992274;28;20487;-85
2021/11/23 09:31:32;;;;;;;17.15;9.27;;;6.70;99.90;;;;;;4993023;28;20094;-86
2021/11/23 09:33:58;;;;;;;13.82;9.00;;;6.80;99.90;;;;;;4991679;28;20030;-87
2021/11/23 09:36:23;;;;;;;14.52;9.25;;;6.90;99.90;;;;;;4991612;28;20040;-85
2021/11/23 09:38:49;;;;;;;16.40;7.38;;;6.90;99.90;;;;;;4992442;28;20284;-91
2021/11/23 09:41:15;;;;;;;11.18;6.22;;;6.90;99.90;;;;;;4990465;28;20107;-91
2021/11/23 09:43:41;;;;;;;12.82;6.80;;;7.00;99.90;;;;;;5006816;28;20028;-91
2021/11/23 09:46:08;;;;;;;9.52;6.28;;;7.00;99.90;;;;;;5004184;28;20045;-89
2021/11/23 09:48:39;;;;;;;18.88;10.75;;;7.10;99.90;;;;;;5008735;28;20045;-85
2021/11/23 09:51:06;;;;;;;16.30;8.82;;;7.00;99.90;;;;;;5008354;28;20169;-88
2021/11/23 09:53:32;;;;;;;12.93;7.97;;;7.10;99.90;;;;;;4990489;28;20394;-84
2021/11/23 09:55:58;;;;;;;15.13;9.30;;;7.20;99.90;;;;;;5007409;28;20026;-85
2021/11/23 09:58:23;;;;;;;14.43;8.48;;;7.30;99.90;;;;;;4994775;28;20030;-86
2021/11/23 10:00:52;;;;;;;13.27;8.55;;;7.20;99.90;;;;;;4981770;28;20057;-87
2021/11/23 10:03:26;;;;;;;11.50;7.32;;;7.20;99.90;;;;;;4988596;28;20065;-91
2021/11/23 10:06:03;;;;;;;16.48;9.13;;;7.30;99.90;;;;;;4976718;28;20042;-86
2021/11/23 10:08:29;;;;;;;16.42;8.13;;;7.30;99.90;;;;;;4975198;28;20031;-86
2021/11/23 10:10:54;;;;;;;13.77;6.43;;;7.40;99.90;;;;;;4996192;28;20137;-90
2021/11/23 10:13:22;;;;;;;16.38;7.90;;;7.40;99.90;;;;;;4989350;28;20037;-90
2021/11/23 10:15:49;;;;;;;18.20;9.30;;;7.50;99.90;;;;;;4975875;28;20030;-88
2021/11/23 10:18:18;;;;;;;18.23;9.20;;;7.40;99.90;;;;;;4994266;28;20084;-90
2021/11/23 10:20:51;;;;;;;17.92;10.35;;;7.50;99.90;;;;;;4977545;28;20515;-87
2021/11/23 10:23:30;;;;;;;15.45;8.82;;;7.40;99.90;;;;;;4973807;28;20054;-91
2021/11/23 10:26:12;;;;;;;10.73;6.47;;;7.50;99.90;;;;;;4992224;28;20038;-88
2021/11/23 10:28:38;;;;;;;13.68;8.15;;;7.50;99.90;;;;;;4991356;28;20375;-93
2021/11/23 10:31:06;;;;;;;14.18;8.18;;;7.40;99.90;;;;;;4990361;28;20494;-87
2021/11/23 10:33:33;;;;;;;16.80;10.80;;;7.50;99.90;;;;;;4973186;28;20034;-85
2021/11/23 10:35:59;;;;;;;17.00;9.50;;;7.50;99.90;;;;;;4976289;28;20045;-87
2021/11/23 10:38:26;;;;;;;15.90;9.75;;;7.40;99.90;;;;;;4973797;28;20029;-89
2021/11/23 10:40:53;;;;;;;14.43;8.65;;;7.40;99.90;;;;;;4973511;28;20069;-88
2021/11/23 10:43:21;;;;;;;15.45;8.35;;;7.50;99.90;;;;;;4989680;28;20110;-87
2021/11/23 10:45:55;;;;;;;15.98;9.77;;;7.50;99.90;;;;;;4976238;28;20066;-86
2021/11/23 10:48:23;;;;;;;15.73;9.23;;;7.50;99.90;;;;;;4973093;28;20077;-86
2021/11/23 10:51:10;;;;;;;18.92;10.13;;;7.40;99.90;;;;;;4993247;28;20497;-86
2021/11/23 10:53:39;;;;;;;18.42;9.25;;;7.40;99.90;;;;;;4973335;28;20137;-86
2021/11/23 10:56:14;;;;;;;14.43;8.57;;;7.50;99.90;;;;;;5011835;28;20029;-85
2021/11/23 10:58:41;;;;;;;18.50;8.88;;;7.60;99.90;;;;;;4966725;28;20030;-87
2021/11/23 11:01:09;;;;;;;14.95;9.93;;;7.70;99.90;;;;;;5026991;28;20077;-86
2021/11/23 11:03:36;;;;;;;19.20;10.63;;;7.70;99.90;;;;;;4993518;28;20053;-84
2021/11/23 11:06:04;;;;;;;20.98;11.63;;;7.80;99.90;;;;;;5014097;28;20052;-85
2021/11/23 11:08:35;;;;;;;20.42;9.82;;;7.90;99.90;;;;;;5014119;28;20048;-89
2021/11/23 11:11:01;;;;;;;22.50;11.18;;;7.80;99.90;;;;;;4991427;28;20038;-87
2021/11/23 11:13:28;;;;;;;22.50;11.68;;;7.80;99.90;;;;;;5007940;28;20033;-88
2021/11/23 11:15:59;;;;;;;20.80;11.35;;;7.80;99.90;;;;;;5008535;28;20069;-86
2021/11/23 11:18:26;;;;;;;18.33;9.52;;;7.80;99.90;;;;;;5008178;28;20435;-86
2021/11/23 11:21:01;;;;;;;22.77;12.00;;;8.10;99.90;;;;;;4994307;28;20033;-86
2021/11/23 11:23:31;;;;;;;22.27;9.82;;;8.00;99.90;;;;;;4992118;28;20034;-87
2021/11/23 11:26:12;;;;;;;;;;;8.00;99.90;;;;;;5009317;28;20191;-86
2021/11/23 11:28:52;;;;;;;25.67;12.32;;;7.90;99.90;;;;;;4996699;28;20282;-88
2021/11/23 11:31:29;;;;;;;30.75;13.20;;;8.00;99.90;;;;;;4992564;28;20072;-84
2021/11/23 11:34:35;;;;;;;21.88;11.40;;;8.10;99.90;;;;;;4992728;28;20501;-86
2021/11/23 11:37:16;;;;;;;23.48;10.07;;;8.40;99.90;;;;;;5007561;28;20037;-85
2021/11/23 11:40:26;;;;;;;25.83;11.48;;;8.30;99.90;;;;;;5008613;28;20593;-87
2021/11/23 11:42:58;;;;;;;24.63;11.93;;;8.20;99.90;;;;;;4889943;29;20059;-86
2021/11/23 11:45:26;;;;;;;18.55;10.30;;;8.20;99.90;;;;;;4893353;29;20055;-86
2021/11/23 11:47:53;;;;;;;16.55;8.73;;;8.20;99.90;;;;;;4924676;29;20088;-90
2021/11/23 11:50:22;;;;;;;17.77;9.68;;;8.20;99.90;;;;;;4911253;29;20033;-86
2021/11/23 11:52:57;;;;;;;18.90;8.68;;;8.10;99.90;;;;;;4911006;29;20073;-90
2021/11/23 11:55:28;;;;;;;23.00;9.30;;;8.00;99.90;;;;;;4920781;29;20116;-91
2021/11/23 11:58:00;;;;;;;19.17;8.85;;;8.00;99.90;;;;;;4905251;29;20039;-86
2021/11/23 12:00:28;;;;;;;20.17;9.77;;;8.20;99.90;;;;;;4896442;29;20537;-85
2021/11/23 12:03:06;;;;;;;18.17;10.02;;;8.20;99.90;;;;;;4920310;29;20033;-85
2021/11/23 12:05:47;;;;;;;14.98;7.22;;;8.30;99.90;;;;;;4908245;29;20049;-86
2021/11/23 12:08:23;;;;;;;19.75;8.50;;;8.50;99.90;;;;;;4922772;29;20064;-86
2021/11/23 12:10:49;;;;;;;17.63;10.45;;;8.50;99.90;;;;;;4919031;29;20100;-85
2021/11/23 12:13:40;;;;;;;19.85;10.32;;;8.50;99.90;;;;;;4908235;29;20071;-85
2021/11/23 12:16:12;;;;;;;14.48;7.55;;;8.70;99.90;;;;;;4912472;29;20036;-91
2021/11/23 12:18:45;;;;;;;12.25;5.82;;;8.70;99.90;;;;;;4913625;29;20032;-89
2021/11/23 12:21:14;;;;;;;12.18;5.35;;;8.70;99.90;;;;;;5009612;28;20469;-86
2021/11/23 12:23:56;;;;;;;11.10;6.18;;;8.80;99.90;;;;;;4998127;28;20032;-88
2021/11/23 12:26:36;;;;;;;11.73;5.40;;;8.90;99.90;;;;;;5012937;28;20109;-87
2021/11/23 12:29:04;;;;;;;15.10;6.28;;;9.10;99.90;;;;;;4995440;28;20081;-88
2021/11/23 12:31:36;;;;;;;11.40;5.50;;;9.10;99.90;;;;;;5013230;28;20034;-87
2021/11/23 12:34:06;;;;;;;12.23;5.43;;;9.30;99.90;;;;;;4999093;28;20106;-87
2021/11/23 12:36:56;;;;;;;11.27;6.15;;;9.20;99.90;;;;;;5017696;28;20468;-87
2021/11/23 12:39:34;;;;;;;8.00;4.50;;;9.40;99.90;;;;;;5014281;28;20041;-88
2021/11/23 12:42:03;;;;;;;11.02;6.10;;;9.50;99.90;;;;;;5009972;28;20137;-85
2021/11/23 12:44:37;;;;;;;7.80;4.38;;;9.30;99.90;;;;;;5010112;28;20057;-86
2021/11/23 12:47:14;;;;;;;7.60;5.10;;;9.40;99.90;;;;;;5013133;28;20034;-87
2021/11/23 12:49:41;;;;;;;6.40;4.40;;;9.30;99.90;;;;;;5031142;28;20093;-88
2021/11/23 12:52:13;;;;;;;12.18;6.63;;;9.30;99.90;;;;;;4995147;28;20124;-87
2021/11/23 12:54:41;;;;;;;10.23;6.25;;;9.20;99.90;;;;;;5015474;28;20489;-90
2021/11/23 12:57:13;;;;;;;12.45;8.05;;;9.20;99.90;;;;;;5012021;28;20037;-89
2021/11/23 12:59:43;;;;;;;13.38;6.78;;;9.10;99.90;;;;;;5001278;28;20054;-90